sensor_id;sensor_type;location;lat;lon;timestamp;temperature;humidity
12568;DHT22;6349;50.904;6.136;2023-02-11T00:00:50;6.10;99.90
12568;DHT22;6349;50.904;6.136;2023-02-11T00:02:53;6.10;99.90
12568;DHT22;6349;50.904;6.136;2023-02-11T00:04:55;6.10;99.90
12568;DHT22;6349;50.904;6.136;2023-02-11T00:06:56;6.10;99.90
12568;DHT22;6349;50.904;6.136;2023-02-11T00:08:58;6.10;99.90
12568;DHT22;6349;50.904;6.136;2023-02-11T00:11:00;6.00;99.90
12568;DHT22;6349;50.904;6.136;2023-02-11T00:13:02;6.10;99.90
12568;DHT22;6349;50.904;6.136;2023-02-11T00:15:08;6.10;99.90
12568;DHT22;6349;50.904;6.136;2023-02-11T00:17:10;6.10;99.90
12568;DHT22;6349;50.904;6.136;2023-02-11T00:19:11;6.00;99.90
12568;DHT22;6349;50.904;6.136;2023-02-11T00:21:15;6.00;99.90
12568;DHT22;6349;50.904;6.136;2023-02-11T00:23:18;6.00;99.90
12568;DHT22;6349;50.904;6.136;2023-02-11T00:25:19;6.00;99.90
12568;DHT22;6349;50.904;6.136;2023-02-11T00:27:21;5.90;99.90
12568;DHT22;6349;50.904;6.136;2023-02-11T00:29:23;5.90;99.90
12568;DHT22;6349;50.904;6.136;2023-02-11T00:31:27;5.90;99.90
12568;DHT22;6349;50.904;6.136;2023-02-11T00:33:35;5.90;99.90
12568;DHT22;6349;50.904;6.136;2023-02-11T00:35:37;5.90;99.90
12568;DHT22;6349;50.904;6.136;2023-02-11T00:37:38;5.90;99.90
12568;DHT22;6349;50.904;6.136;2023-02-11T00:39:40;5.90;99.90
12568;DHT22;6349;50.904;6.136;2023-02-11T00:41:41;5.90;99.90
12568;DHT22;6349;50.904;6.136;2023-02-11T00:43:43;5.90;99.90
12568;DHT22;6349;50.904;6.136;2023-02-11T00:45:45;5.90;99.90
12568;DHT22;6349;50.904;6.136;2023-02-11T00:47:46;5.90;99.90
12568;DHT22;6349;50.904;6.136;2023-02-11T00:49:48;5.80;99.90
12568;DHT22;6349;50.904;6.136;2023-02-11T00:51:50;5.90;99.90
12568;DHT22;6349;50.904;6.136;2023-02-11T00:53:53;5.80;99.90
12568;DHT22;6349;50.904;6.136;2023-02-11T00:55:54;5.80;99.90
12568;DHT22;6349;50.904;6.136;2023-02-11T00:57:56;5.80;99.90
12568;DHT22;6349;50.904;6.136;2023-02-11T00:59:59;5.80;99.90
12568;DHT22;6349;50.904;6.136;2023-02-11T01:02:01;5.80;99.90
12568;DHT22;6349;50.904;6.136;2023-02-11T01:04:05;5.80;99.90
12568;DHT22;6349;50.904;6.136;2023-02-11T01:06:08;5.80;99.90
12568;DHT22;6349;50.904;6.136;2023-02-11T01:08:10;5.80;99.90
12568;DHT22;6349;50.904;6.136;2023-02-11T01:10:13;5.80;99.90
12568;DHT22;6349;50.904;6.136;2023-02-11T01:12:14;5.80;99.90
12568;DHT22;6349;50.904;6.136;2023-02-11T01:14:16;5.80;99.90
12568;DHT22;6349;50.904;6.136;2023-02-11T01:16:21;5.80;99.90
12568;DHT22;6349;50.904;6.136;2023-02-11T01:18:23;5.80;99.90
12568;DHT22;6349;50.904;6.136;2023-02-11T01:20:26;5.80;99.90
12568;DHT22;6349;50.904;6.136;2023-02-11T01:22:28;5.80;99.90
12568;DHT22;6349;50.904;6.136;2023-02-11T01:24:30;5.80;99.90
12568;DHT22;6349;50.904;6.136;2023-02-11T01:26:32;5.80;99.90
12568;DHT22;6349;50.904;6.136;2023-02-11T01:28:34;5.80;99.90
12568;DHT22;6349;50.904;6.136;2023-02-11T01:30:36;5.80;99.90
12568;DHT22;6349;50.904;6.136;2023-02-11T01:32:38;5.80;99.90
12568;DHT22;6349;50.904;6.136;2023-02-11T01:34:41;5.80;99.90
12568;DHT22;6349;50.904;6.136;2023-02-11T01:36:41;5.90;99.90
12568;DHT22;6349;50.904;6.136;2023-02-11T01:38:43;5.80;99.90
12568;DHT22;6349;50.904;6.136;2023-02-11T01:40:49;5.80;99.90
12568;DHT22;6349;50.904;6.136;2023-02-11T01:42:50;5.80;99.90
12568;DHT22;6349;50.904;6.136;2023-02-11T01:44:53;5.80;99.90
12568;DHT22;6349;50.904;6.136;2023-02-11T01:46:55;5.80;99.90
12568;DHT22;6349;50.904;6.136;2023-02-11T01:49:06;5.80;99.90
12568;DHT22;6349;50.904;6.136;2023-02-11T01:51:14;5.80;99.90
12568;DHT22;6349;50.904;6.136;2023-02-11T01:53:17;5.90;99.90
12568;DHT22;6349;50.904;6.136;2023-02-11T01:55:43;5.80;99.90
12568;DHT22;6349;50.904;6.136;2023-02-11T01:58:05;5.90;99.90
12568;DHT22;6349;50.904;6.136;2023-02-11T02:02:31;5.90;99.90
12568;DHT22;6349;50.904;6.136;2023-02-11T02:04:48;5.80;99.90
12568;DHT22;6349;50.904;6.136;2023-02-11T02:06:58;5.80;99.90
12568;DHT22;6349;50.904;6.136;2023-02-11T02:09:07;5.80;99.90
12568;DHT22;6349;50.904;6.136;2023-02-11T02:11:11;5.80;99.90
12568;DHT22;6349;50.904;6.136;2023-02-11T02:13:12;5.80;99.90
12568;DHT22;6349;50.904;6.136;2023-02-11T02:15:33;5.80;99.90
12568;DHT22;6349;50.904;6.136;2023-02-11T02:17:44;5.80;99.90
12568;DHT22;6349;50.904;6.136;2023-02-11T02:20:13;5.80;99.90
12568;DHT22;6349;50.904;6.136;2023-02-11T02:25:17;5.80;99.90
12568;DHT22;6349;50.904;6.136;2023-02-11T02:30:34;5.80;99.90
12568;DHT22;6349;50.904;6.136;2023-02-11T02:32:58;5.80;99.90
12568;DHT22;6349;50.904;6.136;2023-02-11T02:35:19;5.80;99.90
12568;DHT22;6349;50.904;6.136;2023-02-11T02:40:11;5.70;99.90
12568;DHT22;6349;50.904;6.136;2023-02-11T02:42:17;5.80;99.90
12568;DHT22;6349;50.904;6.136;2023-02-11T02:44:20;5.70;99.90
12568;DHT22;6349;50.904;6.136;2023-02-11T02:46:26;5.70;99.90
12568;DHT22;6349;50.904;6.136;2023-02-11T02:48:32;5.70;99.90
12568;DHT22;6349;50.904;6.136;2023-02-11T02:50:36;5.60;99.90
12568;DHT22;6349;50.904;6.136;2023-02-11T02:53:02;5.70;99.90
12568;DHT22;6349;50.904;6.136;2023-02-11T02:57:34;5.70;99.90
12568;DHT22;6349;50.904;6.136;2023-02-11T03:00:03;5.60;99.90
12568;DHT22;6349;50.904;6.136;2023-02-11T03:02:22;5.60;99.90
12568;DHT22;6349;50.904;6.136;2023-02-11T03:04:36;5.60;99.90
12568;DHT22;6349;50.904;6.136;2023-02-11T03:09:05;5.60;99.90
12568;DHT22;6349;50.904;6.136;2023-02-11T03:11:10;5.60;99.90
12568;DHT22;6349;50.904;6.136;2023-02-11T03:13:15;5.60;99.90
12568;DHT22;6349;50.904;6.136;2023-02-11T03:15:23;5.50;99.90
12568;DHT22;6349;50.904;6.136;2023-02-11T03:17:26;5.50;99.90
12568;DHT22;6349;50.904;6.136;2023-02-11T03:19:33;5.60;99.90
12568;DHT22;6349;50.904;6.136;2023-02-11T03:21:38;5.50;99.90
12568;DHT22;6349;50.904;6.136;2023-02-11T03:23:49;5.50;99.90
12568;DHT22;6349;50.904;6.136;2023-02-11T03:25:56;5.50;99.90
12568;DHT22;6349;50.904;6.136;2023-02-11T03:30:42;5.50;99.90
12568;DHT22;6349;50.904;6.136;2023-02-11T03:32:52;5.50;99.90
12568;DHT22;6349;50.904;6.136;2023-02-11T03:35:08;5.50;99.90
12568;DHT22;6349;50.904;6.136;2023-02-11T03:37:24;5.50;99.90
12568;DHT22;6349;50.904;6.136;2023-02-11T03:39:34;5.50;99.90
12568;DHT22;6349;50.904;6.136;2023-02-11T03:41:38;5.50;99.90
12568;DHT22;6349;50.904;6.136;2023-02-11T03:43:44;5.60;99.90
12568;DHT22;6349;50.904;6.136;2023-02-11T03:45:50;5.60;99.90
12568;DHT22;6349;50.904;6.136;2023-02-11T03:48:01;5.60;99.90
12568;DHT22;6349;50.904;6.136;2023-02-11T03:50:05;5.60;99.90
12568;DHT22;6349;50.904;6.136;2023-02-11T03:52:07;5.60;99.90
12568;DHT22;6349;50.904;6.136;2023-02-11T03:54:14;5.60;99.90
12568;DHT22;6349;50.904;6.136;2023-02-11T03:56:20;5.60;99.90
12568;DHT22;6349;50.904;6.136;2023-02-11T03:58:24;5.70;99.90
12568;DHT22;6349;50.904;6.136;2023-02-11T04:00:30;5.60;99.90
12568;DHT22;6349;50.904;6.136;2023-02-11T04:02:35;5.60;99.90
12568;DHT22;6349;50.904;6.136;2023-02-11T04:04:37;5.60;99.90
12568;DHT22;6349;50.904;6.136;2023-02-11T04:06:39;5.60;99.90
12568;DHT22;6349;50.904;6.136;2023-02-11T04:08:40;5.70;99.90
12568;DHT22;6349;50.904;6.136;2023-02-11T04:10:41;5.70;99.90
12568;DHT22;6349;50.904;6.136;2023-02-11T04:12:43;5.70;99.90
12568;DHT22;6349;50.904;6.136;2023-02-11T04:14:45;5.60;99.90
12568;DHT22;6349;50.904;6.136;2023-02-11T04:16:45;5.60;99.90
12568;DHT22;6349;50.904;6.136;2023-02-11T04:18:48;5.60;99.90
12568;DHT22;6349;50.904;6.136;2023-02-11T04:20:51;5.70;99.90
12568;DHT22;6349;50.904;6.136;2023-02-11T04:22:52;5.70;99.90
12568;DHT22;6349;50.904;6.136;2023-02-11T04:24:53;5.70;99.90
12568;DHT22;6349;50.904;6.136;2023-02-11T04:26:55;5.70;99.90
12568;DHT22;6349;50.904;6.136;2023-02-11T04:28:59;5.60;99.90
12568;DHT22;6349;50.904;6.136;2023-02-11T04:31:01;5.70;99.90
12568;DHT22;6349;50.904;6.136;2023-02-11T04:33:03;5.70;99.90
12568;DHT22;6349;50.904;6.136;2023-02-11T04:35:05;5.70;99.90
12568;DHT22;6349;50.904;6.136;2023-02-11T04:37:07;5.70;99.90
12568;DHT22;6349;50.904;6.136;2023-02-11T04:39:09;5.60;99.90
12568;DHT22;6349;50.904;6.136;2023-02-11T04:41:11;5.60;99.90
12568;DHT22;6349;50.904;6.136;2023-02-11T04:43:16;5.60;99.90
12568;DHT22;6349;50.904;6.136;2023-02-11T04:45:18;5.60;99.90
12568;DHT22;6349;50.904;6.136;2023-02-11T04:47:20;5.50;99.90
12568;DHT22;6349;50.904;6.136;2023-02-11T04:49:22;5.50;99.90
12568;DHT22;6349;50.904;6.136;2023-02-11T04:51:23;5.50;99.90
12568;DHT22;6349;50.904;6.136;2023-02-11T04:53:25;5.50;99.90
12568;DHT22;6349;50.904;6.136;2023-02-11T04:55:26;5.60;99.90
12568;DHT22;6349;50.904;6.136;2023-02-11T04:57:28;5.50;99.90
12568;DHT22;6349;50.904;6.136;2023-02-11T04:59:30;5.50;99.90
12568;DHT22;6349;50.904;6.136;2023-02-11T05:01:32;5.50;99.90
12568;DHT22;6349;50.904;6.136;2023-02-11T05:03:34;5.60;99.90
12568;DHT22;6349;50.904;6.136;2023-02-11T05:05:41;5.60;99.90
12568;DHT22;6349;50.904;6.136;2023-02-11T05:07:42;5.50;99.90
12568;DHT22;6349;50.904;6.136;2023-02-11T05:09:43;5.60;99.90
12568;DHT22;6349;50.904;6.136;2023-02-11T05:11:45;5.50;99.90
12568;DHT22;6349;50.904;6.136;2023-02-11T05:13:48;5.60;99.90
12568;DHT22;6349;50.904;6.136;2023-02-11T05:15:50;5.60;99.90
12568;DHT22;6349;50.904;6.136;2023-02-11T05:17:52;5.60;99.90
12568;DHT22;6349;50.904;6.136;2023-02-11T05:19:53;5.60;99.90
12568;DHT22;6349;50.904;6.136;2023-02-11T05:21:54;5.60;99.90
12568;DHT22;6349;50.904;6.136;2023-02-11T05:23:57;5.60;99.90
12568;DHT22;6349;50.904;6.136;2023-02-11T05:25:59;5.70;99.90
12568;DHT22;6349;50.904;6.136;2023-02-11T05:27:59;5.50;99.90
12568;DHT22;6349;50.904;6.136;2023-02-11T05:30:01;5.60;99.90
12568;DHT22;6349;50.904;6.136;2023-02-11T05:32:04;5.60;99.90
12568;DHT22;6349;50.904;6.136;2023-02-11T05:34:11;5.60;99.90
12568;DHT22;6349;50.904;6.136;2023-02-11T05:36:14;5.60;99.90
12568;DHT22;6349;50.904;6.136;2023-02-11T05:38:19;5.60;99.90
12568;DHT22;6349;50.904;6.136;2023-02-11T05:40:21;5.60;99.90
12568;DHT22;6349;50.904;6.136;2023-02-11T05:42:22;5.60;99.90
12568;DHT22;6349;50.904;6.136;2023-02-11T05:44:27;5.60;99.90
12568;DHT22;6349;50.904;6.136;2023-02-11T05:46:27;5.60;99.90
12568;DHT22;6349;50.904;6.136;2023-02-11T05:48:30;5.60;99.90
12568;DHT22;6349;50.904;6.136;2023-02-11T05:50:32;5.60;99.90
12568;DHT22;6349;50.904;6.136;2023-02-11T05:52:32;5.60;99.90
12568;DHT22;6349;50.904;6.136;2023-02-11T05:54:34;5.60;99.90
12568;DHT22;6349;50.904;6.136;2023-02-11T05:56:36;5.60;99.90
12568;DHT22;6349;50.904;6.136;2023-02-11T05:58:41;5.60;99.90
12568;DHT22;6349;50.904;6.136;2023-02-11T06:00:43;5.60;99.90
12568;DHT22;6349;50.904;6.136;2023-02-11T06:02:48;5.60;99.90
12568;DHT22;6349;50.904;6.136;2023-02-11T06:04:49;5.70;99.90
12568;DHT22;6349;50.904;6.136;2023-02-11T06:06:52;5.60;99.90
12568;DHT22;6349;50.904;6.136;2023-02-11T06:08:55;5.60;99.90
12568;DHT22;6349;50.904;6.136;2023-02-11T06:10:56;5.60;99.90
12568;DHT22;6349;50.904;6.136;2023-02-11T06:12:58;5.70;99.90
12568;DHT22;6349;50.904;6.136;2023-02-11T06:15:01;5.50;99.90
12568;DHT22;6349;50.904;6.136;2023-02-11T06:17:03;5.60;99.90
12568;DHT22;6349;50.904;6.136;2023-02-11T06:19:05;5.60;99.90
12568;DHT22;6349;50.904;6.136;2023-02-11T06:21:07;5.60;99.90
12568;DHT22;6349;50.904;6.136;2023-02-11T06:23:09;5.60;99.90
12568;DHT22;6349;50.904;6.136;2023-02-11T06:25:11;5.70;99.90
12568;DHT22;6349;50.904;6.136;2023-02-11T06:27:12;5.70;99.90
12568;DHT22;6349;50.904;6.136;2023-02-11T06:29:15;5.70;99.90
12568;DHT22;6349;50.904;6.136;2023-02-11T06:31:17;5.70;99.90
12568;DHT22;6349;50.904;6.136;2023-02-11T06:33:18;5.80;99.90
12568;DHT22;6349;50.904;6.136;2023-02-11T06:35:20;5.70;99.90
12568;DHT22;6349;50.904;6.136;2023-02-11T06:37:22;5.70;99.90
12568;DHT22;6349;50.904;6.136;2023-02-11T06:39:24;5.70;99.90
12568;DHT22;6349;50.904;6.136;2023-02-11T06:41:28;5.70;99.90
12568;DHT22;6349;50.904;6.136;2023-02-11T06:43:30;5.60;99.90
12568;DHT22;6349;50.904;6.136;2023-02-11T06:45:31;5.70;99.90
12568;DHT22;6349;50.904;6.136;2023-02-11T06:47:32;5.70;99.90
12568;DHT22;6349;50.904;6.136;2023-02-11T06:49:34;5.60;99.90
12568;DHT22;6349;50.904;6.136;2023-02-11T06:51:36;5.70;99.90
12568;DHT22;6349;50.904;6.136;2023-02-11T06:53:41;5.70;99.90
12568;DHT22;6349;50.904;6.136;2023-02-11T06:55:47;5.70;99.90
12568;DHT22;6349;50.904;6.136;2023-02-11T06:57:48;5.60;99.90
12568;DHT22;6349;50.904;6.136;2023-02-11T06:59:50;5.60;99.90
12568;DHT22;6349;50.904;6.136;2023-02-11T07:01:52;5.70;99.90
12568;DHT22;6349;50.904;6.136;2023-02-11T07:03:54;5.70;99.90
12568;DHT22;6349;50.904;6.136;2023-02-11T07:05:57;5.70;99.90
12568;DHT22;6349;50.904;6.136;2023-02-11T07:07:58;5.70;99.90
12568;DHT22;6349;50.904;6.136;2023-02-11T07:09:59;5.60;99.90
12568;DHT22;6349;50.904;6.136;2023-02-11T07:12:01;5.60;99.90
12568;DHT22;6349;50.904;6.136;2023-02-11T07:14:05;5.60;99.90
12568;DHT22;6349;50.904;6.136;2023-02-11T07:16:11;5.80;99.90
12568;DHT22;6349;50.904;6.136;2023-02-11T07:18:13;5.70;99.90
12568;DHT22;6349;50.904;6.136;2023-02-11T07:20:15;5.70;99.90
12568;DHT22;6349;50.904;6.136;2023-02-11T07:22:18;5.70;99.90
12568;DHT22;6349;50.904;6.136;2023-02-11T07:24:20;5.70;99.90
12568;DHT22;6349;50.904;6.136;2023-02-11T07:26:23;5.70;99.90
12568;DHT22;6349;50.904;6.136;2023-02-11T07:28:23;5.70;99.90
12568;DHT22;6349;50.904;6.136;2023-02-11T07:30:25;5.70;99.90
12568;DHT22;6349;50.904;6.136;2023-02-11T07:32:29;5.70;99.90
12568;DHT22;6349;50.904;6.136;2023-02-11T07:34:29;5.80;99.90
12568;DHT22;6349;50.904;6.136;2023-02-11T07:36:36;5.70;99.90
12568;DHT22;6349;50.904;6.136;2023-02-11T07:38:42;5.70;99.90
12568;DHT22;6349;50.904;6.136;2023-02-11T07:40:44;5.70;99.90
12568;DHT22;6349;50.904;6.136;2023-02-11T07:42:45;5.70;99.90
12568;DHT22;6349;50.904;6.136;2023-02-11T07:44:47;5.60;99.90
12568;DHT22;6349;50.904;6.136;2023-02-11T07:46:49;5.70;99.90
12568;DHT22;6349;50.904;6.136;2023-02-11T07:48:52;5.70;99.90
12568;DHT22;6349;50.904;6.136;2023-02-11T07:50:53;5.70;99.90
12568;DHT22;6349;50.904;6.136;2023-02-11T07:52:55;5.70;99.90
12568;DHT22;6349;50.904;6.136;2023-02-11T07:54:57;5.70;99.90
12568;DHT22;6349;50.904;6.136;2023-02-11T07:57:00;5.70;99.90
12568;DHT22;6349;50.904;6.136;2023-02-11T07:59:02;5.80;99.90
12568;DHT22;6349;50.904;6.136;2023-02-11T08:01:07;5.80;99.90
12568;DHT22;6349;50.904;6.136;2023-02-11T08:03:10;5.70;99.90
12568;DHT22;6349;50.904;6.136;2023-02-11T08:05:12;5.80;99.90
12568;DHT22;6349;50.904;6.136;2023-02-11T08:07:15;5.80;99.90
12568;DHT22;6349;50.904;6.136;2023-02-11T08:09:17;5.80;99.90
12568;DHT22;6349;50.904;6.136;2023-02-11T08:11:21;5.80;99.90
12568;DHT22;6349;50.904;6.136;2023-02-11T08:13:23;5.80;99.90
12568;DHT22;6349;50.904;6.136;2023-02-11T08:15:27;5.80;99.90
12568;DHT22;6349;50.904;6.136;2023-02-11T08:17:28;5.80;99.90
12568;DHT22;6349;50.904;6.136;2023-02-11T08:19:31;5.80;99.90
12568;DHT22;6349;50.904;6.136;2023-02-11T08:21:32;5.80;99.90
12568;DHT22;6349;50.904;6.136;2023-02-11T08:23:36;5.80;99.90
12568;DHT22;6349;50.904;6.136;2023-02-11T08:25:39;5.80;99.90
12568;DHT22;6349;50.904;6.136;2023-02-11T08:27:40;5.80;99.90
12568;DHT22;6349;50.904;6.136;2023-02-11T08:29:41;5.80;99.90
12568;DHT22;6349;50.904;6.136;2023-02-11T08:31:45;5.80;99.90
12568;DHT22;6349;50.904;6.136;2023-02-11T08:33:48;5.80;99.90
12568;DHT22;6349;50.904;6.136;2023-02-11T08:35:49;5.90;99.90
12568;DHT22;6349;50.904;6.136;2023-02-11T08:37:52;5.80;99.90
12568;DHT22;6349;50.904;6.136;2023-02-11T08:39:54;5.90;99.90
12568;DHT22;6349;50.904;6.136;2023-02-11T08:41:55;5.90;99.90
12568;DHT22;6349;50.904;6.136;2023-02-11T08:43:57;5.90;99.90
12568;DHT22;6349;50.904;6.136;2023-02-11T08:45:59;5.90;99.90
12568;DHT22;6349;50.904;6.136;2023-02-11T08:48:02;5.90;99.90
12568;DHT22;6349;50.904;6.136;2023-02-11T08:50:04;5.90;99.90
12568;DHT22;6349;50.904;6.136;2023-02-11T08:52:07;5.90;99.90
12568;DHT22;6349;50.904;6.136;2023-02-11T08:54:14;6.00;99.90
12568;DHT22;6349;50.904;6.136;2023-02-11T08:56:17;6.00;99.90
12568;DHT22;6349;50.904;6.136;2023-02-11T08:58:21;5.90;99.90
12568;DHT22;6349;50.904;6.136;2023-02-11T09:00:22;6.00;99.90
12568;DHT22;6349;50.904;6.136;2023-02-11T09:02:24;6.00;99.90
12568;DHT22;6349;50.904;6.136;2023-02-11T09:04:26;6.00;99.90
12568;DHT22;6349;50.904;6.136;2023-02-11T09:06:28;6.00;99.90
12568;DHT22;6349;50.904;6.136;2023-02-11T09:08:30;6.00;99.90
12568;DHT22;6349;50.904;6.136;2023-02-11T09:10:32;6.00;99.90
12568;DHT22;6349;50.904;6.136;2023-02-11T09:12:34;6.00;99.90
12568;DHT22;6349;50.904;6.136;2023-02-11T09:14:36;6.00;99.90
12568;DHT22;6349;50.904;6.136;2023-02-11T09:16:40;6.00;99.90
12568;DHT22;6349;50.904;6.136;2023-02-11T09:18:42;6.10;99.90
12568;DHT22;6349;50.904;6.136;2023-02-11T09:20:46;6.00;99.90
12568;DHT22;6349;50.904;6.136;2023-02-11T09:22:47;6.10;99.90
12568;DHT22;6349;50.904;6.136;2023-02-11T09:24:49;6.10;99.90
12568;DHT22;6349;50.904;6.136;2023-02-11T09:26:50;6.10;99.90
12568;DHT22;6349;50.904;6.136;2023-02-11T09:28:52;6.10;99.90
12568;DHT22;6349;50.904;6.136;2023-02-11T09:30:54;6.10;99.90
12568;DHT22;6349;50.904;6.136;2023-02-11T09:32:56;6.10;99.90
12568;DHT22;6349;50.904;6.136;2023-02-11T09:34:58;6.10;99.90
12568;DHT22;6349;50.904;6.136;2023-02-11T09:36:59;6.10;99.90
12568;DHT22;6349;50.904;6.136;2023-02-11T09:39:03;6.10;99.90
12568;DHT22;6349;50.904;6.136;2023-02-11T09:41:11;6.10;99.90
12568;DHT22;6349;50.904;6.136;2023-02-11T09:43:21;6.10;99.90
12568;DHT22;6349;50.904;6.136;2023-02-11T09:45:25;6.10;99.90
12568;DHT22;6349;50.904;6.136;2023-02-11T09:47:33;6.10;99.90
12568;DHT22;6349;50.904;6.136;2023-02-11T09:49:44;6.10;99.90
12568;DHT22;6349;50.904;6.136;2023-02-11T09:51:51;6.10;99.90
12568;DHT22;6349;50.904;6.136;2023-02-11T09:53:58;6.10;99.90
12568;DHT22;6349;50.904;6.136;2023-02-11T09:56:09;6.10;99.90
12568;DHT22;6349;50.904;6.136;2023-02-11T09:58:15;6.10;99.90
12568;DHT22;6349;50.904;6.136;2023-02-11T10:00:39;6.20;99.90
12568;DHT22;6349;50.904;6.136;2023-02-11T10:03:00;6.20;99.90
12568;DHT22;6349;50.904;6.136;2023-02-11T10:05:24;6.10;99.90
12568;DHT22;6349;50.904;6.136;2023-02-11T10:07:40;6.20;99.90
12568;DHT22;6349;50.904;6.136;2023-02-11T10:25:32;6.20;99.90
12568;DHT22;6349;50.904;6.136;2023-02-11T10:27:35;6.20;99.90
12568;DHT22;6349;50.904;6.136;2023-02-11T10:29:41;6.20;99.90
12568;DHT22;6349;50.904;6.136;2023-02-11T10:31:45;6.20;99.90
12568;DHT22;6349;50.904;6.136;2023-02-11T10:34:14;6.20;99.90
12568;DHT22;6349;50.904;6.136;2023-02-11T10:36:17;6.20;99.90
12568;DHT22;6349;50.904;6.136;2023-02-11T10:38:19;6.20;99.90
12568;DHT22;6349;50.904;6.136;2023-02-11T10:40:24;6.20;99.90
12568;DHT22;6349;50.904;6.136;2023-02-11T10:42:26;6.20;99.90
12568;DHT22;6349;50.904;6.136;2023-02-11T10:44:32;6.30;99.90
12568;DHT22;6349;50.904;6.136;2023-02-11T10:46:36;6.30;99.90
12568;DHT22;6349;50.904;6.136;2023-02-11T10:48:47;6.30;99.90
12568;DHT22;6349;50.904;6.136;2023-02-11T10:51:14;6.30;99.90
12568;DHT22;6349;50.904;6.136;2023-02-11T10:53:19;6.30;99.90
12568;DHT22;6349;50.904;6.136;2023-02-11T10:55:25;6.30;99.90
12568;DHT22;6349;50.904;6.136;2023-02-11T10:57:33;6.20;99.90
12568;DHT22;6349;50.904;6.136;2023-02-11T10:59:37;6.30;99.90
12568;DHT22;6349;50.904;6.136;2023-02-11T11:01:52;6.30;99.90
12568;DHT22;6349;50.904;6.136;2023-02-11T11:03:53;6.30;99.90
12568;DHT22;6349;50.904;6.136;2023-02-11T11:05:57;6.40;99.90
12568;DHT22;6349;50.904;6.136;2023-02-11T11:08:04;6.30;99.90
12568;DHT22;6349;50.904;6.136;2023-02-11T11:12:50;6.40;99.90
12568;DHT22;6349;50.904;6.136;2023-02-11T11:14:56;6.40;99.90
12568;DHT22;6349;50.904;6.136;2023-02-11T11:16:57;6.40;99.90
12568;DHT22;6349;50.904;6.136;2023-02-11T11:19:13;6.40;99.90
12568;DHT22;6349;50.904;6.136;2023-02-11T11:23:36;6.50;99.90
12568;DHT22;6349;50.904;6.136;2023-02-11T11:25:41;6.40;99.90
12568;DHT22;6349;50.904;6.136;2023-02-11T11:27:48;6.40;99.90
12568;DHT22;6349;50.904;6.136;2023-02-11T11:29:53;6.40;99.90
12568;DHT22;6349;50.904;6.136;2023-02-11T11:31:58;6.50;99.90
12568;DHT22;6349;50.904;6.136;2023-02-11T11:34:32;6.50;99.90
12568;DHT22;6349;50.904;6.136;2023-02-11T11:36:37;6.50;99.90
12568;DHT22;6349;50.904;6.136;2023-02-11T11:39:01;6.50;99.90
12568;DHT22;6349;50.904;6.136;2023-02-11T11:41:25;6.50;99.90
12568;DHT22;6349;50.904;6.136;2023-02-11T11:43:28;6.60;99.90
12568;DHT22;6349;50.904;6.136;2023-02-11T11:45:31;6.60;99.90
12568;DHT22;6349;50.904;6.136;2023-02-11T11:47:57;6.60;99.90
12568;DHT22;6349;50.904;6.136;2023-02-11T11:52:55;6.60;99.90
12568;DHT22;6349;50.904;6.136;2023-02-11T11:57:19;6.70;99.90
12568;DHT22;6349;50.904;6.136;2023-02-11T11:59:22;6.70;99.90
12568;DHT22;6349;50.904;6.136;2023-02-11T12:04:33;6.70;99.90
12568;DHT22;6349;50.904;6.136;2023-02-11T12:16:43;6.80;99.90
12568;DHT22;6349;50.904;6.136;2023-02-11T12:21:59;6.70;99.90
12568;DHT22;6349;50.904;6.136;2023-02-11T12:32:09;6.80;99.90
12568;DHT22;6349;50.904;6.136;2023-02-11T12:37:13;6.80;99.90
12568;DHT22;6349;50.904;6.136;2023-02-11T12:39:42;6.80;99.90
12568;DHT22;6349;50.904;6.136;2023-02-11T12:42:03;6.80;99.90
12568;DHT22;6349;50.904;6.136;2023-02-11T12:47:21;6.80;99.90
12568;DHT22;6349;50.904;6.136;2023-02-11T12:49:44;6.80;99.90
12568;DHT22;6349;50.904;6.136;2023-02-11T12:52:16;6.90;99.90
12568;DHT22;6349;50.904;6.136;2023-02-11T12:54:27;6.90;99.90
12568;DHT22;6349;50.904;6.136;2023-02-11T12:58:51;6.90;99.90
12568;DHT22;6349;50.904;6.136;2023-02-11T13:01:17;6.90;99.90
12568;DHT22;6349;50.904;6.136;2023-02-11T13:03:26;6.90;99.90
12568;DHT22;6349;50.904;6.136;2023-02-11T13:05:39;6.90;99.90
12568;DHT22;6349;50.904;6.136;2023-02-11T13:07:45;6.90;99.90
12568;DHT22;6349;50.904;6.136;2023-02-11T13:09:54;7.00;99.90
12568;DHT22;6349;50.904;6.136;2023-02-11T13:12:04;6.90;99.90
12568;DHT22;6349;50.904;6.136;2023-02-11T13:14:30;6.90;99.90
12568;DHT22;6349;50.904;6.136;2023-02-11T13:16:45;6.90;99.90
12568;DHT22;6349;50.904;6.136;2023-02-11T13:18:56;6.90;99.90
12568;DHT22;6349;50.904;6.136;2023-02-11T13:21:25;6.90;99.90
12568;DHT22;6349;50.904;6.136;2023-02-11T13:24:12;6.90;99.90
12568;DHT22;6349;50.904;6.136;2023-02-11T13:26:17;6.90;99.90
12568;DHT22;6349;50.904;6.136;2023-02-11T13:28:56;6.90;99.90
12568;DHT22;6349;50.904;6.136;2023-02-11T13:31:00;6.90;99.90
12568;DHT22;6349;50.904;6.136;2023-02-11T13:33:37;6.90;99.90
12568;DHT22;6349;50.904;6.136;2023-02-11T13:35:36;6.90;99.90
12568;DHT22;6349;50.904;6.136;2023-02-11T13:37:38;6.90;99.90
12568;DHT22;6349;50.904;6.136;2023-02-11T13:39:40;7.00;99.90
12568;DHT22;6349;50.904;6.136;2023-02-11T13:41:41;6.90;99.90
12568;DHT22;6349;50.904;6.136;2023-02-11T13:44:00;7.00;99.90
12568;DHT22;6349;50.904;6.136;2023-02-11T13:46:07;7.00;99.90
12568;DHT22;6349;50.904;6.136;2023-02-11T13:48:29;7.00;99.90
12568;DHT22;6349;50.904;6.136;2023-02-11T13:50:37;7.00;99.90
12568;DHT22;6349;50.904;6.136;2023-02-11T13:52:40;7.00;99.90
12568;DHT22;6349;50.904;6.136;2023-02-11T13:54:48;7.00;99.90
12568;DHT22;6349;50.904;6.136;2023-02-11T13:57:26;7.00;99.90
12568;DHT22;6349;50.904;6.136;2023-02-11T14:04:27;7.00;99.90
12568;DHT22;6349;50.904;6.136;2023-02-11T14:07:27;7.00;99.90
12568;DHT22;6349;50.904;6.136;2023-02-11T14:09:49;7.00;99.90
12568;DHT22;6349;50.904;6.136;2023-02-11T14:12:15;7.10;99.90
12568;DHT22;6349;50.904;6.136;2023-02-11T14:14:25;7.10;99.90
12568;DHT22;6349;50.904;6.136;2023-02-11T14:16:27;7.10;99.90
12568;DHT22;6349;50.904;6.136;2023-02-11T14:21:18;7.10;99.90
12568;DHT22;6349;50.904;6.136;2023-02-11T14:23:23;7.10;99.90
12568;DHT22;6349;50.904;6.136;2023-02-11T14:25:28;7.10;99.90
12568;DHT22;6349;50.904;6.136;2023-02-11T14:27:52;7.10;99.90
12568;DHT22;6349;50.904;6.136;2023-02-11T14:30:25;7.10;99.90
12568;DHT22;6349;50.904;6.136;2023-02-11T14:35:29;7.20;99.90
12568;DHT22;6349;50.904;6.136;2023-02-11T14:37:47;7.20;99.90
12568;DHT22;6349;50.904;6.136;2023-02-11T14:40:30;7.20;99.90
12568;DHT22;6349;50.904;6.136;2023-02-11T14:42:20;7.20;99.90
12568;DHT22;6349;50.904;6.136;2023-02-11T14:44:27;7.20;99.90
12568;DHT22;6349;50.904;6.136;2023-02-11T14:46:30;7.20;99.90
12568;DHT22;6349;50.904;6.136;2023-02-11T14:48:35;7.20;99.90
12568;DHT22;6349;50.904;6.136;2023-02-11T14:50:43;7.20;99.90
12568;DHT22;6349;50.904;6.136;2023-02-11T14:52:46;7.20;99.90
12568;DHT22;6349;50.904;6.136;2023-02-11T14:54:50;7.20;99.90
12568;DHT22;6349;50.904;6.136;2023-02-11T14:57:14;7.20;99.90
12568;DHT22;6349;50.904;6.136;2023-02-11T14:59:19;7.20;99.90
12568;DHT22;6349;50.904;6.136;2023-02-11T15:03:39;7.20;99.90
12568;DHT22;6349;50.904;6.136;2023-02-11T15:05:41;7.30;99.90
12568;DHT22;6349;50.904;6.136;2023-02-11T15:07:46;7.20;99.90
12568;DHT22;6349;50.904;6.136;2023-02-11T15:09:51;7.30;99.90
12568;DHT22;6349;50.904;6.136;2023-02-11T15:11:55;7.30;99.90
12568;DHT22;6349;50.904;6.136;2023-02-11T15:14:10;7.30;99.90